sensor_id;sensor_type;location;lat;lon;timestamp;P1;durP1;ratioP1;P2;durP2;ratioP2
18146;SDS011;9199;48.832;9.182;2023-05-29T00:01:41;15.77;;;5.67;;
18146;SDS011;9199;48.832;9.182;2023-05-29T00:04:07;10.40;;;5.50;;
18146;SDS011;9199;48.832;9.182;2023-05-29T00:06:36;12.05;;;5.43;;
18146;SDS011;9199;48.832;9.182;2023-05-29T00:09:03;11.93;;;5.40;;
18146;SDS011;9199;48.832;9.182;2023-05-29T00:11:30;10.88;;;5.53;;
18146;SDS011;9199;48.832;9.182;2023-05-29T00:13:56;12.40;;;5.10;;
18146;SDS011;9199;48.832;9.182;2023-05-29T00:16:23;10.85;;;5.57;;
18146;SDS011;9199;48.832;9.182;2023-05-29T00:18:50;12.32;;;6.05;;
18146;SDS011;9199;48.832;9.182;2023-05-29T00:21:17;9.82;;;5.28;;
18146;SDS011;9199;48.832;9.182;2023-05-29T00:23:45;9.85;;;5.15;;
18146;SDS011;9199;48.832;9.182;2023-05-29T00:26:12;10.07;;;5.23;;
18146;SDS011;9199;48.832;9.182;2023-05-29T00:28:41;12.18;;;5.82;;
18146;SDS011;9199;48.832;9.182;2023-05-29T00:31:08;11.65;;;5.38;;
18146;SDS011;9199;48.832;9.182;2023-05-29T00:33:36;9.95;;;5.40;;
18146;SDS011;9199;48.832;9.182;2023-05-29T00:36:03;12.60;;;5.30;;
18146;SDS011;9199;48.832;9.182;2023-05-29T00:38:30;11.27;;;5.30;;
18146;SDS011;9199;48.832;9.182;2023-05-29T00:40:58;10.32;;;5.35;;
18146;SDS011;9199;48.832;9.182;2023-05-29T00:43:25;12.73;;;4.80;;
18146;SDS011;9199;48.832;9.182;2023-05-29T00:45:52;9.95;;;5.05;;
18146;SDS011;9199;48.832;9.182;2023-05-29T00:48:18;10.73;;;5.18;;
18146;SDS011;9199;48.832;9.182;2023-05-29T00:50:45;11.10;;;5.17;;
18146;SDS011;9199;48.832;9.182;2023-05-29T00:53:12;12.10;;;5.30;;
18146;SDS011;9199;48.832;9.182;2023-05-29T00:55:40;14.95;;;5.00;;
18146;SDS011;9199;48.832;9.182;2023-05-29T00:58:08;9.63;;;5.22;;
18146;SDS011;9199;48.832;9.182;2023-05-29T01:00:35;10.85;;;5.20;;
18146;SDS011;9199;48.832;9.182;2023-05-29T01:03:03;11.30;;;5.20;;
18146;SDS011;9199;48.832;9.182;2023-05-29T01:05:33;13.93;;;5.55;;
18146;SDS011;9199;48.832;9.182;2023-05-29T01:08:00;9.60;;;5.00;;
18146;SDS011;9199;48.832;9.182;2023-05-29T01:10:27;12.88;;;5.07;;
18146;SDS011;9199;48.832;9.182;2023-05-29T01:12:56;11.93;;;5.57;;
18146;SDS011;9199;48.832;9.182;2023-05-29T01:15:31;12.23;;;5.57;;
18146;SDS011;9199;48.832;9.182;2023-05-29T01:18:07;11.77;;;5.65;;
18146;SDS011;9199;48.832;9.182;2023-05-29T01:20:44;10.40;;;5.07;;
18146;SDS011;9199;48.832;9.182;2023-05-29T01:26:08;8.80;;;4.90;;
18146;SDS011;9199;48.832;9.182;2023-05-29T01:28:50;11.67;;;5.10;;
18146;SDS011;9199;48.832;9.182;2023-05-29T01:31:21;10.18;;;5.65;;
18146;SDS011;9199;48.832;9.182;2023-05-29T01:33:53;12.93;;;5.43;;
18146;SDS011;9199;48.832;9.182;2023-05-29T01:36:20;13.40;;;5.80;;
18146;SDS011;9199;48.832;9.182;2023-05-29T01:38:47;12.10;;;5.72;;
18146;SDS011;9199;48.832;9.182;2023-05-29T01:41:14;11.87;;;5.13;;
18146;SDS011;9199;48.832;9.182;2023-05-29T01:43:42;14.50;;;5.85;;
18146;SDS011;9199;48.832;9.182;2023-05-29T01:46:12;13.60;;;5.57;;
18146;SDS011;9199;48.832;9.182;2023-05-29T01:48:39;11.82;;;4.70;;
18146;SDS011;9199;48.832;9.182;2023-05-29T01:51:07;13.10;;;5.43;;
18146;SDS011;9199;48.832;9.182;2023-05-29T01:53:36;11.27;;;5.57;;
18146;SDS011;9199;48.832;9.182;2023-05-29T01:56:03;12.98;;;5.63;;
18146;SDS011;9199;48.832;9.182;2023-05-29T01:58:31;11.82;;;5.75;;
18146;SDS011;9199;48.832;9.182;2023-05-29T02:00:58;12.50;;;5.22;;
18146;SDS011;9199;48.832;9.182;2023-05-29T02:03:28;11.20;;;5.10;;
18146;SDS011;9199;48.832;9.182;2023-05-29T02:05:55;11.73;;;5.50;;
18146;SDS011;9199;48.832;9.182;2023-05-29T02:08:22;11.40;;;5.25;;
18146;SDS011;9199;48.832;9.182;2023-05-29T02:10:49;12.98;;;5.57;;
18146;SDS011;9199;48.832;9.182;2023-05-29T02:13:16;14.55;;;5.68;;
18146;SDS011;9199;48.832;9.182;2023-05-29T02:15:43;11.13;;;5.45;;
18146;SDS011;9199;48.832;9.182;2023-05-29T02:18:10;11.87;;;5.43;;
18146;SDS011;9199;48.832;9.182;2023-05-29T02:20:41;12.20;;;5.18;;
18146;SDS011;9199;48.832;9.182;2023-05-29T02:23:08;14.48;;;6.10;;
18146;SDS011;9199;48.832;9.182;2023-05-29T02:25:35;10.02;;;5.15;;
18146;SDS011;9199;48.832;9.182;2023-05-29T02:28:02;9.68;;;5.10;;
18146;SDS011;9199;48.832;9.182;2023-05-29T02:30:29;10.90;;;5.43;;
18146;SDS011;9199;48.832;9.182;2023-05-29T02:32:56;18.55;;;5.63;;
18146;SDS011;9199;48.832;9.182;2023-05-29T02:35:22;9.60;;;4.88;;
18146;SDS011;9199;48.832;9.182;2023-05-29T02:37:51;12.20;;;5.20;;
18146;SDS011;9199;48.832;9.182;2023-05-29T02:40:18;10.85;;;4.82;;
18146;SDS011;9199;48.832;9.182;2023-05-29T02:42:45;9.67;;;4.93;;
18146;SDS011;9199;48.832;9.182;2023-05-29T02:45:12;13.05;;;5.40;;
18146;SDS011;9199;48.832;9.182;2023-05-29T02:47:39;13.38;;;5.45;;
18146;SDS011;9199;48.832;9.182;2023-05-29T02:50:06;12.85;;;5.40;;
18146;SDS011;9199;48.832;9.182;2023-05-29T02:52:33;14.82;;;5.70;;
18146;SDS011;9199;48.832;9.182;2023-05-29T02:55:03;13.83;;;5.63;;
18146;SDS011;9199;48.832;9.182;2023-05-29T02:57:30;11.35;;;5.22;;
18146;SDS011;9199;48.832;9.182;2023-05-29T02:59:57;12.57;;;4.93;;
18146;SDS011;9199;48.832;9.182;2023-05-29T03:02:24;12.82;;;5.20;;
18146;SDS011;9199;48.832;9.182;2023-05-29T03:04:51;10.77;;;4.97;;
18146;SDS011;9199;48.832;9.182;2023-05-29T03:07:18;12.33;;;5.00;;
18146;SDS011;9199;48.832;9.182;2023-05-29T03:09:45;11.48;;;5.90;;
18146;SDS011;9199;48.832;9.182;2023-05-29T03:12:13;10.52;;;5.28;;
18146;SDS011;9199;48.832;9.182;2023-05-29T03:14:41;15.00;;;5.43;;
18146;SDS011;9199;48.832;9.182;2023-05-29T03:17:08;9.40;;;4.78;;
18146;SDS011;9199;48.832;9.182;2023-05-29T03:19:35;9.67;;;4.77;;
18146;SDS011;9199;48.832;9.182;2023-05-29T03:22:02;11.32;;;5.13;;
18146;SDS011;9199;48.832;9.182;2023-05-29T03:24:29;9.25;;;4.50;;
18146;SDS011;9199;48.832;9.182;2023-05-29T03:26:56;11.32;;;4.90;;
18146;SDS011;9199;48.832;9.182;2023-05-29T03:29:24;10.60;;;5.20;;
18146;SDS011;9199;48.832;9.182;2023-05-29T03:31:50;12.10;;;5.00;;
18146;SDS011;9199;48.832;9.182;2023-05-29T03:34:17;11.77;;;5.10;;
18146;SDS011;9199;48.832;9.182;2023-05-29T03:36:44;10.82;;;5.00;;
18146;SDS011;9199;48.832;9.182;2023-05-29T03:39:11;10.23;;;5.07;;
18146;SDS011;9199;48.832;9.182;2023-05-29T03:41:38;11.68;;;4.85;;
18146;SDS011;9199;48.832;9.182;2023-05-29T03:44:05;9.20;;;4.83;;
18146;SDS011;9199;48.832;9.182;2023-05-29T03:46:33;8.65;;;4.32;;
18146;SDS011;9199;48.832;9.182;2023-05-29T03:49:00;10.20;;;4.80;;
18146;SDS011;9199;48.832;9.182;2023-05-29T03:51:27;13.00;;;5.18;;
18146;SDS011;9199;48.832;9.182;2023-05-29T03:53:53;11.85;;;5.07;;
18146;SDS011;9199;48.832;9.182;2023-05-29T03:56:20;11.80;;;5.83;;
18146;SDS011;9199;48.832;9.182;2023-05-29T03:58:47;9.32;;;4.72;;
18146;SDS011;9199;48.832;9.182;2023-05-29T04:01:14;10.32;;;5.10;;
18146;SDS011;9199;48.832;9.182;2023-05-29T04:03:42;10.57;;;4.80;;
18146;SDS011;9199;48.832;9.182;2023-05-29T04:06:10;12.13;;;5.18;;
18146;SDS011;9199;48.832;9.182;2023-05-29T04:08:36;10.60;;;4.70;;
18146;SDS011;9199;48.832;9.182;2023-05-29T04:11:03;11.63;;;5.18;;
18146;SDS011;9199;48.832;9.182;2023-05-29T04:13:30;11.23;;;5.15;;
18146;SDS011;9199;48.832;9.182;2023-05-29T04:15:57;10.93;;;5.03;;
18146;SDS011;9199;48.832;9.182;2023-05-29T04:18:24;11.18;;;5.13;;
18146;SDS011;9199;48.832;9.182;2023-05-29T04:20:52;11.13;;;4.83;;
18146;SDS011;9199;48.832;9.182;2023-05-29T04:23:19;10.68;;;4.97;;
18146;SDS011;9199;48.832;9.182;2023-05-29T04:25:46;9.55;;;4.80;;
18146;SDS011;9199;48.832;9.182;2023-05-29T04:28:15;9.27;;;4.60;;
18146;SDS011;9199;48.832;9.182;2023-05-29T04:30:42;10.10;;;4.80;;
18146;SDS011;9199;48.832;9.182;2023-05-29T04:33:09;12.13;;;5.63;;
18146;SDS011;9199;48.832;9.182;2023-05-29T04:35:37;9.57;;;4.88;;
18146;SDS011;9199;48.832;9.182;2023-05-29T04:38:05;10.30;;;5.00;;
18146;SDS011;9199;48.832;9.182;2023-05-29T04:40:32;10.32;;;4.95;;
18146;SDS011;9199;48.832;9.182;2023-05-29T04:43:01;10.10;;;4.65;;
18146;SDS011;9199;48.832;9.182;2023-05-29T04:45:30;12.80;;;5.00;;
18146;SDS011;9199;48.832;9.182;2023-05-29T04:47:57;8.43;;;4.65;;
18146;SDS011;9199;48.832;9.182;2023-05-29T04:50:23;11.38;;;4.90;;
18146;SDS011;9199;48.832;9.182;2023-05-29T04:52:51;9.63;;;4.63;;
18146;SDS011;9199;48.832;9.182;2023-05-29T04:55:19;12.25;;;4.90;;
18146;SDS011;9199;48.832;9.182;2023-05-29T04:57:45;12.57;;;5.23;;
18146;SDS011;9199;48.832;9.182;2023-05-29T05:00:12;12.02;;;4.40;;
18146;SDS011;9199;48.832;9.182;2023-05-29T05:02:41;9.93;;;4.60;;
18146;SDS011;9199;48.832;9.182;2023-05-29T05:05:08;12.18;;;4.85;;
18146;SDS011;9199;48.832;9.182;2023-05-29T05:07:35;13.85;;;4.80;;
18146;SDS011;9199;48.832;9.182;2023-05-29T05:10:02;10.20;;;4.70;;
18146;SDS011;9199;48.832;9.182;2023-05-29T05:12:30;9.95;;;4.78;;
18146;SDS011;9199;48.832;9.182;2023-05-29T05:14:57;9.02;;;4.63;;
18146;SDS011;9199;48.832;9.182;2023-05-29T05:17:23;10.25;;;4.88;;
18146;SDS011;9199;48.832;9.182;2023-05-29T05:19:50;10.48;;;4.82;;
18146;SDS011;9199;48.832;9.182;2023-05-29T05:22:18;8.80;;;4.80;;
18146;SDS011;9199;48.832;9.182;2023-05-29T05:24:45;10.98;;;4.80;;
18146;SDS011;9199;48.832;9.182;2023-05-29T05:27:11;9.45;;;4.78;;
18146;SDS011;9199;48.832;9.182;2023-05-29T05:29:39;8.13;;;4.30;;
18146;SDS011;9199;48.832;9.182;2023-05-29T05:32:06;9.40;;;4.60;;
18146;SDS011;9199;48.832;9.182;2023-05-29T05:34:33;10.33;;;4.60;;
18146;SDS011;9199;48.832;9.182;2023-05-29T05:37:00;9.05;;;4.32;;
18146;SDS011;9199;48.832;9.182;2023-05-29T05:39:27;9.05;;;4.70;;
18146;SDS011;9199;48.832;9.182;2023-05-29T05:41:54;11.13;;;4.95;;
18146;SDS011;9199;48.832;9.182;2023-05-29T05:44:21;10.05;;;4.68;;
18146;SDS011;9199;48.832;9.182;2023-05-29T05:46:49;11.40;;;4.90;;
18146;SDS011;9199;48.832;9.182;2023-05-29T05:49:16;10.45;;;4.60;;
18146;SDS011;9199;48.832;9.182;2023-05-29T05:51:42;9.95;;;4.57;;
18146;SDS011;9199;48.832;9.182;2023-05-29T05:54:09;7.82;;;4.30;;
18146;SDS011;9199;48.832;9.182;2023-05-29T05:56:36;8.98;;;4.28;;
18146;SDS011;9199;48.832;9.182;2023-05-29T05:59:02;9.50;;;4.37;;
18146;SDS011;9199;48.832;9.182;2023-05-29T06:01:29;8.63;;;4.05;;
18146;SDS011;9199;48.832;9.182;2023-05-29T06:03:57;8.38;;;4.28;;
18146;SDS011;9199;48.832;9.182;2023-05-29T06:06:24;9.95;;;4.05;;
18146;SDS011;9199;48.832;9.182;2023-05-29T06:08:51;9.00;;;4.50;;
18146;SDS011;9199;48.832;9.182;2023-05-29T06:11:18;9.53;;;4.17;;
18146;SDS011;9199;48.832;9.182;2023-05-29T06:13:44;10.25;;;4.60;;
18146;SDS011;9199;48.832;9.182;2023-05-29T06:16:11;9.85;;;4.30;;
18146;SDS011;9199;48.832;9.182;2023-05-29T06:18:38;12.23;;;4.13;;
18146;SDS011;9199;48.832;9.182;2023-05-29T06:21:06;9.10;;;4.47;;
18146;SDS011;9199;48.832;9.182;2023-05-29T06:23:34;10.57;;;4.70;;
18146;SDS011;9199;48.832;9.182;2023-05-29T06:26:02;9.82;;;4.38;;
18146;SDS011;9199;48.832;9.182;2023-05-29T06:28:29;10.32;;;4.30;;
18146;SDS011;9199;48.832;9.182;2023-05-29T06:30:56;9.95;;;4.43;;
18146;SDS011;9199;48.832;9.182;2023-05-29T06:33:22;9.93;;;4.18;;
18146;SDS011;9199;48.832;9.182;2023-05-29T06:35:49;9.20;;;4.30;;
18146;SDS011;9199;48.832;9.182;2023-05-29T06:38:17;11.23;;;4.20;;
18146;SDS011;9199;48.832;9.182;2023-05-29T06:40:44;9.77;;;4.22;;
18146;SDS011;9199;48.832;9.182;2023-05-29T06:43:10;8.35;;;3.95;;
18146;SDS011;9199;48.832;9.182;2023-05-29T06:45:37;10.35;;;4.05;;
18146;SDS011;9199;48.832;9.182;2023-05-29T06:48:04;9.40;;;3.90;;
18146;SDS011;9199;48.832;9.182;2023-05-29T06:50:31;7.00;;;3.67;;
18146;SDS011;9199;48.832;9.182;2023-05-29T06:52:58;8.68;;;3.67;;
18146;SDS011;9199;48.832;9.182;2023-05-29T06:55:27;8.02;;;3.53;;
18146;SDS011;9199;48.832;9.182;2023-05-29T06:57:53;8.18;;;3.70;;
18146;SDS011;9199;48.832;9.182;2023-05-29T07:00:20;10.13;;;3.73;;
18146;SDS011;9199;48.832;9.182;2023-05-29T07:02:47;9.07;;;3.80;;
18146;SDS011;9199;48.832;9.182;2023-05-29T07:05:16;11.63;;;3.60;;
18146;SDS011;9199;48.832;9.182;2023-05-29T07:07:42;7.20;;;3.65;;
18146;SDS011;9199;48.832;9.182;2023-05-29T07:10:09;8.50;;;3.50;;
18146;SDS011;9199;48.832;9.182;2023-05-29T07:12:38;10.00;;;3.87;;
18146;SDS011;9199;48.832;9.182;2023-05-29T07:15:05;7.53;;;3.53;;
18146;SDS011;9199;48.832;9.182;2023-05-29T07:17:32;7.72;;;3.38;;
18146;SDS011;9199;48.832;9.182;2023-05-29T07:19:58;9.52;;;3.85;;
18146;SDS011;9199;48.832;9.182;2023-05-29T07:22:25;7.55;;;3.58;;
18146;SDS011;9199;48.832;9.182;2023-05-29T07:24:52;8.37;;;3.40;;
18146;SDS011;9199;48.832;9.182;2023-05-29T07:27:18;7.82;;;3.53;;
18146;SDS011;9199;48.832;9.182;2023-05-29T07:29:46;6.75;;;3.17;;
18146;SDS011;9199;48.832;9.182;2023-05-29T07:32:13;7.53;;;3.38;;
18146;SDS011;9199;48.832;9.182;2023-05-29T07:34:40;9.05;;;3.63;;
18146;SDS011;9199;48.832;9.182;2023-05-29T07:37:06;9.27;;;3.97;;
18146;SDS011;9199;48.832;9.182;2023-05-29T07:39:34;7.50;;;3.58;;
18146;SDS011;9199;48.832;9.182;2023-05-29T07:42:01;8.88;;;3.92;;
18146;SDS011;9199;48.832;9.182;2023-05-29T07:44:28;7.75;;;4.00;;
18146;SDS011;9199;48.832;9.182;2023-05-29T07:46:57;8.13;;;3.33;;
18146;SDS011;9199;48.832;9.182;2023-05-29T07:49:24;7.90;;;3.50;;
18146;SDS011;9199;48.832;9.182;2023-05-29T07:51:50;8.63;;;3.85;;
18146;SDS011;9199;48.832;9.182;2023-05-29T07:54:17;7.50;;;4.15;;
18146;SDS011;9199;48.832;9.182;2023-05-29T07:56:45;7.22;;;3.33;;
18146;SDS011;9199;48.832;9.182;2023-05-29T07:59:12;8.77;;;4.07;;
18146;SDS011;9199;48.832;9.182;2023-05-29T08:01:39;8.47;;;3.70;;
18146;SDS011;9199;48.832;9.182;2023-05-29T08:04:07;7.63;;;3.67;;
18146;SDS011;9199;48.832;9.182;2023-05-29T08:06:34;7.28;;;3.63;;
18146;SDS011;9199;48.832;9.182;2023-05-29T08:09:01;9.88;;;3.53;;
18146;SDS011;9199;48.832;9.182;2023-05-29T08:11:28;9.18;;;4.05;;
18146;SDS011;9199;48.832;9.182;2023-05-29T08:13:54;8.73;;;4.17;;
18146;SDS011;9199;48.832;9.182;2023-05-29T08:16:21;7.35;;;3.60;;
18146;SDS011;9199;48.832;9.182;2023-05-29T08:18:48;8.15;;;4.00;;
18146;SDS011;9199;48.832;9.182;2023-05-29T08:21:16;7.68;;;3.85;;
18146;SDS011;9199;48.832;9.182;2023-05-29T08:23:42;7.70;;;3.65;;
18146;SDS011;9199;48.832;9.182;2023-05-29T08:26:09;7.93;;;4.07;;
18146;SDS011;9199;48.832;9.182;2023-05-29T08:28:37;7.68;;;3.80;;
18146;SDS011;9199;48.832;9.182;2023-05-29T08:31:04;8.73;;;3.78;;
18146;SDS011;9199;48.832;9.182;2023-05-29T08:33:31;9.38;;;4.15;;
18146;SDS011;9199;48.832;9.182;2023-05-29T08:35:58;8.93;;;3.95;;
18146;SDS011;9199;48.832;9.182;2023-05-29T08:38:26;8.77;;;3.90;;
18146;SDS011;9199;48.832;9.182;2023-05-29T08:40:53;8.82;;;3.83;;
18146;SDS011;9199;48.832;9.182;2023-05-29T08:43:22;7.07;;;3.90;;
18146;SDS011;9199;48.832;9.182;2023-05-29T08:45:55;6.97;;;3.63;;
18146;SDS011;9199;48.832;9.182;2023-05-29T08:48:25;10.13;;;4.32;;
18146;SDS011;9199;48.832;9.182;2023-05-29T08:50:54;7.67;;;3.63;;
18146;SDS011;9199;48.832;9.182;2023-05-29T08:53:23;7.82;;;4.10;;
18146;SDS011;9199;48.832;9.182;2023-05-29T08:55:52;7.18;;;3.53;;
18146;SDS011;9199;48.832;9.182;2023-05-29T08:58:20;8.55;;;3.70;;
18146;SDS011;9199;48.832;9.182;2023-05-29T09:00:48;7.68;;;3.70;;
18146;SDS011;9199;48.832;9.182;2023-05-29T09:03:15;7.83;;;3.83;;
18146;SDS011;9199;48.832;9.182;2023-05-29T09:05:42;9.55;;;4.05;;
18146;SDS011;9199;48.832;9.182;2023-05-29T09:08:09;9.35;;;3.83;;
18146;SDS011;9199;48.832;9.182;2023-05-29T09:10:37;8.95;;;4.00;;
18146;SDS011;9199;48.832;9.182;2023-05-29T09:13:06;10.63;;;3.70;;
18146;SDS011;9199;48.832;9.182;2023-05-29T09:15:34;7.37;;;4.00;;
18146;SDS011;9199;48.832;9.182;2023-05-29T09:18:01;7.85;;;3.53;;
18146;SDS011;9199;48.832;9.182;2023-05-29T09:20:29;7.30;;;3.50;;
18146;SDS011;9199;48.832;9.182;2023-05-29T09:22:57;8.02;;;3.65;;
18146;SDS011;9199;48.832;9.182;2023-05-29T09:25:26;9.90;;;4.00;;
18146;SDS011;9199;48.832;9.182;2023-05-29T09:27:55;8.73;;;3.80;;
18146;SDS011;9199;48.832;9.182;2023-05-29T09:30:35;8.77;;;4.28;;
18146;SDS011;9199;48.832;9.182;2023-05-29T09:33:04;7.75;;;4.00;;
18146;SDS011;9199;48.832;9.182;2023-05-29T09:35:32;8.27;;;3.90;;
18146;SDS011;9199;48.832;9.182;2023-05-29T09:38:00;8.10;;;4.03;;
18146;SDS011;9199;48.832;9.182;2023-05-29T09:40:29;8.53;;;3.60;;
18146;SDS011;9199;48.832;9.182;2023-05-29T09:42:56;8.55;;;3.95;;
18146;SDS011;9199;48.832;9.182;2023-05-29T09:45:30;7.55;;;3.55;;
18146;SDS011;9199;48.832;9.182;2023-05-29T09:47:59;6.70;;;3.50;;
18146;SDS011;9199;48.832;9.182;2023-05-29T09:50:26;7.28;;;4.00;;
18146;SDS011;9199;48.832;9.182;2023-05-29T09:52:53;8.63;;;4.00;;
18146;SDS011;9199;48.832;9.182;2023-05-29T09:55:20;7.38;;;3.83;;
18146;SDS011;9199;48.832;9.182;2023-05-29T09:57:50;8.77;;;3.47;;
18146;SDS011;9199;48.832;9.182;2023-05-29T10:00:19;7.78;;;3.83;;
18146;SDS011;9199;48.832;9.182;2023-05-29T10:02:47;7.45;;;3.50;;
18146;SDS011;9199;48.832;9.182;2023-05-29T10:05:15;8.97;;;3.60;;
18146;SDS011;9199;48.832;9.182;2023-05-29T10:07:43;8.00;;;3.42;;
18146;SDS011;9199;48.832;9.182;2023-05-29T10:10:12;10.88;;;3.40;;
18146;SDS011;9199;48.832;9.182;2023-05-29T10:12:42;8.60;;;3.88;;
18146;SDS011;9199;48.832;9.182;2023-05-29T10:15:11;8.30;;;3.63;;
18146;SDS011;9199;48.832;9.182;2023-05-29T10:17:39;7.97;;;3.70;;
18146;SDS011;9199;48.832;9.182;2023-05-29T10:20:16;9.68;;;3.45;;
18146;SDS011;9199;48.832;9.182;2023-05-29T10:22:45;8.10;;;3.70;;
18146;SDS011;9199;48.832;9.182;2023-05-29T10:25:13;7.68;;;3.53;;
18146;SDS011;9199;48.832;9.182;2023-05-29T10:27:40;8.80;;;3.80;;
18146;SDS011;9199;48.832;9.182;2023-05-29T10:30:09;6.70;;;3.53;;
18146;SDS011;9199;48.832;9.182;2023-05-29T10:32:43;5.43;;;3.00;;
18146;SDS011;9199;48.832;9.182;2023-05-29T10:35:25;6.20;;;3.47;;
18146;SDS011;9199;48.832;9.182;2023-05-29T10:37:57;7.53;;;3.30;;
18146;SDS011;9199;48.832;9.182;2023-05-29T10:40:34;7.35;;;3.38;;
18146;SDS011;9199;48.832;9.182;2023-05-29T10:43:01;7.90;;;3.57;;
18146;SDS011;9199;48.832;9.182;2023-05-29T10:48:39;7.43;;;3.17;;
18146;SDS011;9199;48.832;9.182;2023-05-29T10:51:08;7.88;;;3.22;;
18146;SDS011;9199;48.832;9.182;2023-05-29T10:53:50;6.28;;;3.42;;
18146;SDS011;9199;48.832;9.182;2023-05-29T10:56:20;5.90;;;3.13;;
18146;SDS011;9199;48.832;9.182;2023-05-29T10:58:49;8.40;;;3.33;;
18146;SDS011;9199;48.832;9.182;2023-05-29T11:01:20;7.10;;;3.40;;
18146;SDS011;9199;48.832;9.182;2023-05-29T11:03:48;6.45;;;3.17;;
18146;SDS011;9199;48.832;9.182;2023-05-29T11:06:18;6.18;;;3.30;;
18146;SDS011;9199;48.832;9.182;2023-05-29T11:08:46;6.70;;;3.27;;
18146;SDS011;9199;48.832;9.182;2023-05-29T11:11:13;6.90;;;3.60;;
18146;SDS011;9199;48.832;9.182;2023-05-29T11:13:41;8.00;;;3.05;;
18146;SDS011;9199;48.832;9.182;2023-05-29T11:16:19;7.45;;;3.38;;
18146;SDS011;9199;48.832;9.182;2023-05-29T11:19:03;8.38;;;3.50;;
18146;SDS011;9199;48.832;9.182;2023-05-29T11:21:33;5.87;;;3.27;;
18146;SDS011;9199;48.832;9.182;2023-05-29T11:24:02;6.80;;;3.28;;
18146;SDS011;9199;48.832;9.182;2023-05-29T11:26:30;7.30;;;3.42;;
18146;SDS011;9199;48.832;9.182;2023-05-29T11:28:58;7.03;;;3.35;;
18146;SDS011;9199;48.832;9.182;2023-05-29T11:31:25;5.60;;;2.92;;
18146;SDS011;9199;48.832;9.182;2023-05-29T11:33:56;6.03;;;3.40;;
18146;SDS011;9199;48.832;9.182;2023-05-29T11:36:25;7.78;;;3.00;;
18146;SDS011;9199;48.832;9.182;2023-05-29T11:38:54;5.57;;;3.20;;
18146;SDS011;9199;48.832;9.182;2023-05-29T11:41:22;6.82;;;3.00;;
18146;SDS011;9199;48.832;9.182;2023-05-29T11:43:58;6.20;;;3.22;;
18146;SDS011;9199;48.832;9.182;2023-05-29T11:46:27;10.73;;;3.70;;
18146;SDS011;9199;48.832;9.182;2023-05-29T11:48:56;5.57;;;3.03;;
18146;SDS011;9199;48.832;9.182;2023-05-29T11:51:23;5.72;;;3.00;;
18146;SDS011;9199;48.832;9.182;2023-05-29T11:53:49;6.32;;;3.20;;
18146;SDS011;9199;48.832;9.182;2023-05-29T11:56:24;7.90;;;3.22;;
18146;SDS011;9199;48.832;9.182;2023-05-29T11:58:51;6.20;;;3.10;;
18146;SDS011;9199;48.832;9.182;2023-05-29T12:01:21;5.90;;;3.35;;
18146;SDS011;9199;48.832;9.182;2023-05-29T12:03:49;7.47;;;2.95;;
18146;SDS011;9199;48.832;9.182;2023-05-29T12:06:16;6.97;;;3.10;;
18146;SDS011;9199;48.832;9.182;2023-05-29T12:08:57;6.15;;;3.00;;
18146;SDS011;9199;48.832;9.182;2023-05-29T12:11:25;5.53;;;3.17;;
18146;SDS011;9199;48.832;9.182;2023-05-29T12:13:55;7.10;;;3.17;;
18146;SDS011;9199;48.832;9.182;2023-05-29T12:16:22;6.07;;;3.10;;
18146;SDS011;9199;48.832;9.182;2023-05-29T12:18:49;5.28;;;3.03;;
18146;SDS011;9199;48.832;9.182;2023-05-29T12:21:16;7.05;;;3.58;;
18146;SDS011;9199;48.832;9.182;2023-05-29T12:23:43;6.47;;;3.17;;
18146;SDS011;9199;48.832;9.182;2023-05-29T12:26:10;5.57;;;3.20;;
18146;SDS011;9199;48.832;9.182;2023-05-29T12:28:43;5.32;;;2.80;;
18146;SDS011;9199;48.832;9.182;2023-05-29T12:31:11;7.82;;;3.17;;
18146;SDS011;9199;48.832;9.182;2023-05-29T12:33:40;4.88;;;3.10;;
18146;SDS011;9199;48.832;9.182;2023-05-29T12:36:09;6.83;;;3.10;;
18146;SDS011;9199;48.832;9.182;2023-05-29T12:38:46;6.03;;;3.20;;
18146;SDS011;9199;48.832;9.182;2023-05-29T12:41:21;8.65;;;3.28;;
18146;SDS011;9199;48.832;9.182;2023-05-29T12:43:52;6.30;;;3.22;;
18146;SDS011;9199;48.832;9.182;2023-05-29T12:46:19;5.65;;;3.10;;
18146;SDS011;9199;48.832;9.182;2023-05-29T12:48:45;6.23;;;3.20;;
18146;SDS011;9199;48.832;9.182;2023-05-29T12:51:12;6.82;;;3.00;;
18146;SDS011;9199;48.832;9.182;2023-05-29T12:53:39;9.45;;;2.97;;
18146;SDS011;9199;48.832;9.182;2023-05-29T12:56:06;5.63;;;2.92;;
18146;SDS011;9199;48.832;9.182;2023-05-29T12:58:32;8.25;;;3.13;;
18146;SDS011;9199;48.832;9.182;2023-05-29T13:01:00;5.20;;;3.00;;
18146;SDS011;9199;48.832;9.182;2023-05-29T13:03:27;6.70;;;3.30;;
18146;SDS011;9199;48.832;9.182;2023-05-29T13:05:54;5.90;;;3.28;;
18146;SDS011;9199;48.832;9.182;2023-05-29T13:08:20;5.72;;;2.75;;
18146;SDS011;9199;48.832;9.182;2023-05-29T13:10:47;6.85;;;3.03;;
18146;SDS011;9199;48.832;9.182;2023-05-29T13:13:14;6.07;;;3.00;;
18146;SDS011;9199;48.832;9.182;2023-05-29T13:15:41;6.00;;;3.10;;
18146;SDS011;9199;48.832;9.182;2023-05-29T13:18:09;5.60;;;3.10;;
18146;SDS011;9199;48.832;9.182;2023-05-29T13:20:36;6.22;;;2.90;;
18146;SDS011;9199;48.832;9.182;2023-05-29T13:23:02;5.60;;;2.90;;
18146;SDS011;9199;48.832;9.182;2023-05-29T13:25:29;5.67;;;3.20;;
18146;SDS011;9199;48.832;9.182;2023-05-29T13:27:56;6.25;;;3.00;;
18146;SDS011;9199;48.832;9.182;2023-05-29T13:30:22;5.80;;;3.20;;
18146;SDS011;9199;48.832;9.182;2023-05-29T13:32:49;5.70;;;3.00;;
18146;SDS011;9199;48.832;9.182;2023-05-29T13:35:19;8.70;;;3.28;;
18146;SDS011;9199;48.832;9.182;2023-05-29T13:37:46;6.20;;;3.00;;
18146;SDS011;9199;48.832;9.182;2023-05-29T13:40:12;4.60;;;2.72;;
18146;SDS011;9199;48.832;9.182;2023-05-29T13:42:39;5.35;;;3.10;;
18146;SDS011;9199;48.832;9.182;2023-05-29T13:45:07;5.55;;;3.10;;
18146;SDS011;9199;48.832;9.182;2023-05-29T13:47:34;5.10;;;2.78;;
18146;SDS011;9199;48.832;9.182;2023-05-29T13:50:01;4.50;;;2.70;;
18146;SDS011;9199;48.832;9.182;2023-05-29T13:52:30;6.43;;;3.40;;
18146;SDS011;9199;48.832;9.182;2023-05-29T13:54:56;5.50;;;3.17;;
18146;SDS011;9199;48.832;9.182;2023-05-29T13:57:26;5.57;;;3.15;;
18146;SDS011;9199;48.832;9.182;2023-05-29T13:59:53;6.60;;;3.17;;
18146;SDS011;9199;48.832;9.182;2023-05-29T14:02:20;7.07;;;3.10;;
18146;SDS011;9199;48.832;9.182;2023-05-29T14:04:47;6.53;;;2.70;;
18146;SDS011;9199;48.832;9.182;2023-05-29T14:07:14;6.78;;;2.90;;
18146;SDS011;9199;48.832;9.182;2023-05-29T14:09:42;8.43;;;3.25;;
18146;SDS011;9199;48.832;9.182;2023-05-29T14:12:09;5.88;;;3.30;;
18146;SDS011;9199;48.832;9.182;2023-05-29T14:14:35;6.50;;;3.20;;
18146;SDS011;9199;48.832;9.182;2023-05-29T14:17:02;4.80;;;2.97;;
18146;SDS011;9199;48.832;9.182;2023-05-29T14:19:30;6.22;;;3.00;;
18146;SDS011;9199;48.832;9.182;2023-05-29T14:21:56;4.88;;;2.90;;
18146;SDS011;9199;48.832;9.182;2023-05-29T14:24:24;7.97;;;3.40;;
18146;SDS011;9199;48.832;9.182;2023-05-29T14:26:52;6.47;;;3.10;;
18146;SDS011;9199;48.832;9.182;2023-05-29T14:29:19;6.20;;;2.95;;
18146;SDS011;9199;48.832;9.182;2023-05-29T14:31:46;6.50;;;2.80;;
18146;SDS011;9199;48.832;9.182;2023-05-29T14:34:12;5.15;;;3.00;;
18146;SDS011;9199;48.832;9.182;2023-05-29T14:36:40;4.82;;;3.10;;
18146;SDS011;9199;48.832;9.182;2023-05-29T14:39:09;5.03;;;3.23;;
18146;SDS011;9199;48.832;9.182;2023-05-29T14:41:36;6.63;;;2.90;;
18146;SDS011;9199;48.832;9.182;2023-05-29T14:44:04;5.25;;;3.10;;
18146;SDS011;9199;48.832;9.182;2023-05-29T14:46:31;6.65;;;3.10;;
18146;SDS011;9199;48.832;9.182;2023-05-29T14:48:58;5.13;;;3.00;;
18146;SDS011;9199;48.832;9.182;2023-05-29T14:51:25;5.50;;;2.70;;
18146;SDS011;9199;48.832;9.182;2023-05-29T14:53:52;5.43;;;2.75;;
18146;SDS011;9199;48.832;9.182;2023-05-29T14:56:18;5.40;;;3.03;;
18146;SDS011;9199;48.832;9.182;2023-05-29T14:58:45;4.88;;;2.92;;
18146;SDS011;9199;48.832;9.182;2023-05-29T15:01:15;6.10;;;2.90;;
18146;SDS011;9199;48.832;9.182;2023-05-29T15:03:42;6.13;;;3.13;;
18146;SDS011;9199;48.832;9.182;2023-05-29T15:06:09;6.65;;;3.20;;
18146;SDS011;9199;48.832;9.182;2023-05-29T15:08:37;6.43;;;3.10;;